sensor_id;sensor_type;location;lat;lon;timestamp;P1;durP1;ratioP1;P2;durP2;ratioP2
46222;SDS011;31943;51.410;7.564;2023-08-20T00:00:34;11.98;;;4.95;;
46222;SDS011;31943;51.410;7.564;2023-08-20T00:03:02;7.47;;;4.82;;
46222;SDS011;31943;51.410;7.564;2023-08-20T00:05:32;7.93;;;5.05;;
46222;SDS011;31943;51.410;7.564;2023-08-20T00:07:59;10.20;;;4.70;;
46222;SDS011;31943;51.410;7.564;2023-08-20T00:10:25;8.30;;;4.88;;
46222;SDS011;31943;51.410;7.564;2023-08-20T00:12:51;6.10;;;4.68;;
46222;SDS011;31943;51.410;7.564;2023-08-20T00:15:17;5.93;;;5.30;;
46222;SDS011;31943;51.410;7.564;2023-08-20T00:17:43;7.45;;;5.22;;
46222;SDS011;31943;51.410;7.564;2023-08-20T00:20:09;6.15;;;4.78;;
46222;SDS011;31943;51.410;7.564;2023-08-20T00:22:37;8.25;;;4.60;;
46222;SDS011;31943;51.410;7.564;2023-08-20T00:25:04;8.60;;;4.85;;
46222;SDS011;31943;51.410;7.564;2023-08-20T00:27:30;9.13;;;4.30;;
46222;SDS011;31943;51.410;7.564;2023-08-20T00:29:56;7.25;;;4.40;;
46222;SDS011;31943;51.410;7.564;2023-08-20T00:32:22;8.18;;;4.60;;
46222;SDS011;31943;51.410;7.564;2023-08-20T00:34:49;8.02;;;4.47;;
46222;SDS011;31943;51.410;7.564;2023-08-20T00:37:15;8.35;;;4.93;;
46222;SDS011;31943;51.410;7.564;2023-08-20T00:39:42;8.95;;;4.82;;
46222;SDS011;31943;51.410;7.564;2023-08-20T00:42:08;8.23;;;4.85;;
46222;SDS011;31943;51.410;7.564;2023-08-20T00:44:34;7.18;;;4.78;;
46222;SDS011;31943;51.410;7.564;2023-08-20T00:47:01;8.38;;;5.10;;
46222;SDS011;31943;51.410;7.564;2023-08-20T00:49:28;8.20;;;4.85;;
46222;SDS011;31943;51.410;7.564;2023-08-20T00:51:55;9.00;;;5.30;;
46222;SDS011;31943;51.410;7.564;2023-08-20T00:54:21;6.97;;;4.43;;
46222;SDS011;31943;51.410;7.564;2023-08-20T00:56:51;7.07;;;5.03;;
46222;SDS011;31943;51.410;7.564;2023-08-20T00:59:17;8.35;;;4.80;;
46222;SDS011;31943;51.410;7.564;2023-08-20T01:01:43;5.55;;;4.97;;
46222;SDS011;31943;51.410;7.564;2023-08-20T01:04:09;7.55;;;5.43;;
46222;SDS011;31943;51.410;7.564;2023-08-20T01:06:36;5.75;;;5.05;;
46222;SDS011;31943;51.410;7.564;2023-08-20T01:09:10;8.95;;;5.15;;
46222;SDS011;31943;51.410;7.564;2023-08-20T01:11:44;7.10;;;4.82;;
46222;SDS011;31943;51.410;7.564;2023-08-20T01:14:17;9.52;;;4.88;;
46222;SDS011;31943;51.410;7.564;2023-08-20T01:16:42;6.68;;;4.82;;
46222;SDS011;31943;51.410;7.564;2023-08-20T01:19:11;8.07;;;5.45;;
46222;SDS011;31943;51.410;7.564;2023-08-20T01:21:43;6.85;;;4.72;;
46222;SDS011;31943;51.410;7.564;2023-08-20T01:24:23;9.65;;;5.35;;
46222;SDS011;31943;51.410;7.564;2023-08-20T01:27:08;9.95;;;5.13;;
46222;SDS011;31943;51.410;7.564;2023-08-20T01:32:11;10.95;;;5.50;;
46222;SDS011;31943;51.410;7.564;2023-08-20T01:34:38;8.57;;;5.38;;
46222;SDS011;31943;51.410;7.564;2023-08-20T01:37:03;8.23;;;5.10;;
46222;SDS011;31943;51.410;7.564;2023-08-20T01:39:29;8.93;;;5.07;;
46222;SDS011;31943;51.410;7.564;2023-08-20T01:41:55;7.55;;;4.40;;
46222;SDS011;31943;51.410;7.564;2023-08-20T01:44:21;7.25;;;5.28;;
46222;SDS011;31943;51.410;7.564;2023-08-20T01:46:48;7.25;;;5.47;;
46222;SDS011;31943;51.410;7.564;2023-08-20T01:49:14;5.88;;;4.50;;
46222;SDS011;31943;51.410;7.564;2023-08-20T01:51:39;5.97;;;4.95;;
46222;SDS011;31943;51.410;7.564;2023-08-20T01:54:05;5.65;;;4.68;;
46222;SDS011;31943;51.410;7.564;2023-08-20T01:56:31;6.70;;;4.60;;
46222;SDS011;31943;51.410;7.564;2023-08-20T01:58:57;6.97;;;4.32;;
46222;SDS011;31943;51.410;7.564;2023-08-20T02:01:22;8.73;;;5.03;;
46222;SDS011;31943;51.410;7.564;2023-08-20T02:03:50;6.75;;;5.30;;
46222;SDS011;31943;51.410;7.564;2023-08-20T02:06:16;5.47;;;4.93;;
46222;SDS011;31943;51.410;7.564;2023-08-20T02:08:41;8.18;;;5.65;;
46222;SDS011;31943;51.410;7.564;2023-08-20T02:11:07;7.70;;;6.95;;
46222;SDS011;31943;51.410;7.564;2023-08-20T02:13:33;7.45;;;6.40;;
46222;SDS011;31943;51.410;7.564;2023-08-20T02:15:59;7.13;;;6.32;;
46222;SDS011;31943;51.410;7.564;2023-08-20T02:18:26;6.65;;;5.60;;
46222;SDS011;31943;51.410;7.564;2023-08-20T02:20:53;5.95;;;4.57;;
46222;SDS011;31943;51.410;7.564;2023-08-20T02:23:19;7.10;;;4.60;;
46222;SDS011;31943;51.410;7.564;2023-08-20T02:25:45;8.30;;;4.90;;
46222;SDS011;31943;51.410;7.564;2023-08-20T02:28:12;7.10;;;4.28;;
46222;SDS011;31943;51.410;7.564;2023-08-20T02:30:39;9.77;;;5.10;;
46222;SDS011;31943;51.410;7.564;2023-08-20T02:33:05;6.50;;;4.65;;
46222;SDS011;31943;51.410;7.564;2023-08-20T02:35:31;8.70;;;5.10;;
46222;SDS011;31943;51.410;7.564;2023-08-20T02:37:59;12.30;;;5.35;;
46222;SDS011;31943;51.410;7.564;2023-08-20T02:40:24;5.28;;;4.82;;
46222;SDS011;31943;51.410;7.564;2023-08-20T02:42:50;9.98;;;5.65;;
46222;SDS011;31943;51.410;7.564;2023-08-20T02:45:16;10.82;;;5.80;;
46222;SDS011;31943;51.410;7.564;2023-08-20T02:47:41;9.00;;;5.20;;
46222;SDS011;31943;51.410;7.564;2023-08-20T02:50:07;4.95;;;4.38;;
46222;SDS011;31943;51.410;7.564;2023-08-20T02:52:33;9.30;;;4.85;;
46222;SDS011;31943;51.410;7.564;2023-08-20T02:55:01;9.57;;;4.90;;
46222;SDS011;31943;51.410;7.564;2023-08-20T02:57:26;10.43;;;5.47;;
46222;SDS011;31943;51.410;7.564;2023-08-20T02:59:52;7.53;;;5.70;;
46222;SDS011;31943;51.410;7.564;2023-08-20T03:02:18;11.38;;;5.28;;
46222;SDS011;31943;51.410;7.564;2023-08-20T03:04:43;6.88;;;4.72;;
46222;SDS011;31943;51.410;7.564;2023-08-20T03:07:09;6.50;;;4.60;;
46222;SDS011;31943;51.410;7.564;2023-08-20T03:09:35;7.55;;;4.43;;
46222;SDS011;31943;51.410;7.564;2023-08-20T03:12:03;5.88;;;4.60;;
46222;SDS011;31943;51.410;7.564;2023-08-20T03:14:29;7.40;;;5.43;;
46222;SDS011;31943;51.410;7.564;2023-08-20T03:16:54;9.02;;;5.68;;
46222;SDS011;31943;51.410;7.564;2023-08-20T03:19:20;9.18;;;6.47;;
46222;SDS011;31943;51.410;7.564;2023-08-20T03:21:46;9.85;;;6.10;;
46222;SDS011;31943;51.410;7.564;2023-08-20T03:24:11;6.47;;;5.65;;
46222;SDS011;31943;51.410;7.564;2023-08-20T03:26:37;9.30;;;5.80;;
46222;SDS011;31943;51.410;7.564;2023-08-20T03:29:04;10.55;;;5.82;;
46222;SDS011;31943;51.410;7.564;2023-08-20T03:31:30;6.80;;;5.40;;
46222;SDS011;31943;51.410;7.564;2023-08-20T03:33:57;7.72;;;6.05;;
46222;SDS011;31943;51.410;7.564;2023-08-20T03:36:23;7.95;;;5.82;;
46222;SDS011;31943;51.410;7.564;2023-08-20T03:38:49;7.38;;;6.57;;
46222;SDS011;31943;51.410;7.564;2023-08-20T03:41:14;6.65;;;5.75;;
46222;SDS011;31943;51.410;7.564;2023-08-20T03:43:40;6.63;;;5.78;;
46222;SDS011;31943;51.410;7.564;2023-08-20T03:46:07;6.22;;;5.25;;
46222;SDS011;31943;51.410;7.564;2023-08-20T03:48:33;7.80;;;6.18;;
46222;SDS011;31943;51.410;7.564;2023-08-20T03:50:59;6.32;;;5.72;;
46222;SDS011;31943;51.410;7.564;2023-08-20T03:53:24;6.68;;;4.72;;
46222;SDS011;31943;51.410;7.564;2023-08-20T03:55:50;7.57;;;5.38;;
46222;SDS011;31943;51.410;7.564;2023-08-20T03:58:15;7.20;;;5.10;;
46222;SDS011;31943;51.410;7.564;2023-08-20T04:00:41;8.95;;;4.70;;
46222;SDS011;31943;51.410;7.564;2023-08-20T04:03:08;6.25;;;4.55;;
46222;SDS011;31943;51.410;7.564;2023-08-20T04:05:35;7.68;;;4.95;;
46222;SDS011;31943;51.410;7.564;2023-08-20T04:08:01;8.63;;;4.90;;
46222;SDS011;31943;51.410;7.564;2023-08-20T04:10:27;7.53;;;5.53;;
46222;SDS011;31943;51.410;7.564;2023-08-20T04:12:53;7.93;;;6.10;;
46222;SDS011;31943;51.410;7.564;2023-08-20T04:15:19;8.23;;;5.03;;
46222;SDS011;31943;51.410;7.564;2023-08-20T04:17:44;8.25;;;4.82;;
46222;SDS011;31943;51.410;7.564;2023-08-20T04:20:12;5.70;;;5.03;;
46222;SDS011;31943;51.410;7.564;2023-08-20T04:22:37;10.23;;;4.88;;
46222;SDS011;31943;51.410;7.564;2023-08-20T04:25:03;9.10;;;5.50;;
46222;SDS011;31943;51.410;7.564;2023-08-20T04:27:30;8.80;;;5.13;;
46222;SDS011;31943;51.410;7.564;2023-08-20T04:29:56;6.80;;;5.25;;
46222;SDS011;31943;51.410;7.564;2023-08-20T04:32:21;11.38;;;5.53;;
46222;SDS011;31943;51.410;7.564;2023-08-20T04:34:47;8.48;;;5.25;;
46222;SDS011;31943;51.410;7.564;2023-08-20T04:37:15;7.82;;;4.70;;
46222;SDS011;31943;51.410;7.564;2023-08-20T04:39:40;8.27;;;5.38;;
46222;SDS011;31943;51.410;7.564;2023-08-20T04:42:06;11.35;;;6.28;;
46222;SDS011;31943;51.410;7.564;2023-08-20T04:44:32;6.63;;;5.85;;
46222;SDS011;31943;51.410;7.564;2023-08-20T04:47:00;6.15;;;5.55;;
46222;SDS011;31943;51.410;7.564;2023-08-20T04:49:26;15.10;;;6.35;;
46222;SDS011;31943;51.410;7.564;2023-08-20T04:51:53;8.57;;;6.30;;
46222;SDS011;31943;51.410;7.564;2023-08-20T04:54:21;13.90;;;8.95;;
46222;SDS011;31943;51.410;7.564;2023-08-20T04:56:47;14.52;;;8.80;;
46222;SDS011;31943;51.410;7.564;2023-08-20T04:59:13;21.10;;;9.05;;
46222;SDS011;31943;51.410;7.564;2023-08-20T05:01:38;22.60;;;9.95;;
46222;SDS011;31943;51.410;7.564;2023-08-20T05:04:04;13.70;;;9.00;;
46222;SDS011;31943;51.410;7.564;2023-08-20T05:06:30;10.55;;;8.23;;
46222;SDS011;31943;51.410;7.564;2023-08-20T05:08:56;10.85;;;7.53;;
46222;SDS011;31943;51.410;7.564;2023-08-20T05:11:23;9.52;;;7.95;;
46222;SDS011;31943;51.410;7.564;2023-08-20T05:13:49;13.55;;;8.80;;
46222;SDS011;31943;51.410;7.564;2023-08-20T05:16:15;8.63;;;7.75;;
46222;SDS011;31943;51.410;7.564;2023-08-20T05:18:42;10.63;;;7.63;;
46222;SDS011;31943;51.410;7.564;2023-08-20T05:21:09;8.40;;;7.32;;
46222;SDS011;31943;51.410;7.564;2023-08-20T05:23:37;8.90;;;7.07;;
46222;SDS011;31943;51.410;7.564;2023-08-20T05:26:05;7.82;;;7.13;;
46222;SDS011;31943;51.410;7.564;2023-08-20T05:28:32;7.90;;;6.65;;
46222;SDS011;31943;51.410;7.564;2023-08-20T05:30:59;6.38;;;5.70;;
46222;SDS011;31943;51.410;7.564;2023-08-20T05:33:26;9.10;;;7.28;;
46222;SDS011;31943;51.410;7.564;2023-08-20T05:35:51;8.57;;;7.65;;
46222;SDS011;31943;51.410;7.564;2023-08-20T05:38:18;8.98;;;7.85;;
46222;SDS011;31943;51.410;7.564;2023-08-20T05:40:44;7.82;;;7.07;;
46222;SDS011;31943;51.410;7.564;2023-08-20T05:43:11;9.65;;;8.63;;
46222;SDS011;31943;51.410;7.564;2023-08-20T05:45:38;10.50;;;7.90;;
46222;SDS011;31943;51.410;7.564;2023-08-20T05:48:04;9.82;;;8.18;;
46222;SDS011;31943;51.410;7.564;2023-08-20T05:50:32;11.13;;;6.90;;
46222;SDS011;31943;51.410;7.564;2023-08-20T05:53:00;10.07;;;7.97;;
46222;SDS011;31943;51.410;7.564;2023-08-20T05:55:26;9.38;;;8.50;;
46222;SDS011;31943;51.410;7.564;2023-08-20T05:57:52;11.85;;;8.40;;
46222;SDS011;31943;51.410;7.564;2023-08-20T06:00:19;9.07;;;8.25;;
46222;SDS011;31943;51.410;7.564;2023-08-20T06:02:47;9.57;;;7.93;;
46222;SDS011;31943;51.410;7.564;2023-08-20T06:05:14;9.57;;;7.68;;
46222;SDS011;31943;51.410;7.564;2023-08-20T06:07:40;9.45;;;8.52;;
46222;SDS011;31943;51.410;7.564;2023-08-20T06:10:06;9.23;;;8.43;;
46222;SDS011;31943;51.410;7.564;2023-08-20T06:12:33;10.13;;;8.15;;
46222;SDS011;31943;51.410;7.564;2023-08-20T06:15:01;9.52;;;8.13;;
46222;SDS011;31943;51.410;7.564;2023-08-20T06:17:28;8.30;;;7.50;;
46222;SDS011;31943;51.410;7.564;2023-08-20T06:19:55;9.23;;;7.85;;
46222;SDS011;31943;51.410;7.564;2023-08-20T06:22:23;9.18;;;8.27;;
46222;SDS011;31943;51.410;7.564;2023-08-20T06:24:49;8.75;;;7.45;;
46222;SDS011;31943;51.410;7.564;2023-08-20T06:27:15;9.63;;;8.73;;
46222;SDS011;31943;51.410;7.564;2023-08-20T06:29:40;10.18;;;9.13;;
46222;SDS011;31943;51.410;7.564;2023-08-20T06:32:06;7.75;;;6.85;;
46222;SDS011;31943;51.410;7.564;2023-08-20T06:34:33;9.02;;;8.18;;
46222;SDS011;31943;51.410;7.564;2023-08-20T06:37:01;9.75;;;8.82;;
46222;SDS011;31943;51.410;7.564;2023-08-20T06:39:29;9.80;;;8.90;;
46222;SDS011;31943;51.410;7.564;2023-08-20T06:42:08;10.05;;;9.18;;
46222;SDS011;31943;51.410;7.564;2023-08-20T06:44:34;10.07;;;9.10;;
46222;SDS011;31943;51.410;7.564;2023-08-20T06:47:00;9.93;;;8.77;;
46222;SDS011;31943;51.410;7.564;2023-08-20T06:49:27;9.15;;;8.15;;
46222;SDS011;31943;51.410;7.564;2023-08-20T06:51:57;9.98;;;8.60;;
46222;SDS011;31943;51.410;7.564;2023-08-20T06:54:24;10.52;;;9.20;;
46222;SDS011;31943;51.410;7.564;2023-08-20T06:56:51;9.77;;;8.88;;
46222;SDS011;31943;51.410;7.564;2023-08-20T06:59:16;11.93;;;8.90;;
46222;SDS011;31943;51.410;7.564;2023-08-20T07:01:43;10.48;;;9.25;;
46222;SDS011;31943;51.410;7.564;2023-08-20T07:04:09;10.65;;;9.60;;
46222;SDS011;31943;51.410;7.564;2023-08-20T07:06:34;9.77;;;8.40;;
46222;SDS011;31943;51.410;7.564;2023-08-20T07:09:00;9.57;;;8.73;;
46222;SDS011;31943;51.410;7.564;2023-08-20T07:11:28;9.32;;;8.30;;
46222;SDS011;31943;51.410;7.564;2023-08-20T07:13:55;10.07;;;9.18;;
46222;SDS011;31943;51.410;7.564;2023-08-20T07:16:22;11.18;;;9.80;;
46222;SDS011;31943;51.410;7.564;2023-08-20T07:18:47;10.27;;;9.00;;
46222;SDS011;31943;51.410;7.564;2023-08-20T07:21:13;12.60;;;9.23;;
46222;SDS011;31943;51.410;7.564;2023-08-20T07:23:40;9.35;;;8.52;;
46222;SDS011;31943;51.410;7.564;2023-08-20T07:26:06;10.35;;;9.27;;
46222;SDS011;31943;51.410;7.564;2023-08-20T07:28:35;10.52;;;8.63;;
46222;SDS011;31943;51.410;7.564;2023-08-20T07:31:02;12.20;;;9.50;;
46222;SDS011;31943;51.410;7.564;2023-08-20T07:33:28;9.68;;;8.68;;
46222;SDS011;31943;51.410;7.564;2023-08-20T07:35:54;8.95;;;8.05;;
46222;SDS011;31943;51.410;7.564;2023-08-20T07:38:20;9.43;;;8.40;;
46222;SDS011;31943;51.410;7.564;2023-08-20T07:40:46;9.77;;;8.75;;
46222;SDS011;31943;51.410;7.564;2023-08-20T07:43:12;8.63;;;7.78;;
46222;SDS011;31943;51.410;7.564;2023-08-20T07:45:40;10.43;;;9.25;;
46222;SDS011;31943;51.410;7.564;2023-08-20T07:48:07;11.77;;;9.15;;
46222;SDS011;31943;51.410;7.564;2023-08-20T07:50:36;11.43;;;9.27;;
46222;SDS011;31943;51.410;7.564;2023-08-20T07:53:02;9.68;;;8.70;;
46222;SDS011;31943;51.410;7.564;2023-08-20T07:55:27;9.32;;;8.52;;
46222;SDS011;31943;51.410;7.564;2023-08-20T07:57:54;10.18;;;7.63;;
46222;SDS011;31943;51.410;7.564;2023-08-20T08:00:21;11.55;;;9.80;;
46222;SDS011;31943;51.410;7.564;2023-08-20T08:02:49;11.35;;;9.65;;
46222;SDS011;31943;51.410;7.564;2023-08-20T08:05:16;12.27;;;10.10;;
46222;SDS011;31943;51.410;7.564;2023-08-20T08:07:43;13.18;;;11.38;;
46222;SDS011;31943;51.410;7.564;2023-08-20T08:10:09;11.75;;;10.68;;
46222;SDS011;31943;51.410;7.564;2023-08-20T08:12:34;11.30;;;9.82;;
46222;SDS011;31943;51.410;7.564;2023-08-20T08:15:00;12.23;;;10.00;;
46222;SDS011;31943;51.410;7.564;2023-08-20T08:17:26;10.88;;;9.70;;
46222;SDS011;31943;51.410;7.564;2023-08-20T08:19:54;13.43;;;11.07;;
46222;SDS011;31943;51.410;7.564;2023-08-20T08:22:21;12.90;;;10.88;;
46222;SDS011;31943;51.410;7.564;2023-08-20T08:24:48;11.15;;;10.07;;
46222;SDS011;31943;51.410;7.564;2023-08-20T08:27:14;12.10;;;10.85;;
46222;SDS011;31943;51.410;7.564;2023-08-20T08:29:40;12.38;;;10.82;;
46222;SDS011;31943;51.410;7.564;2023-08-20T08:32:06;14.98;;;10.95;;
46222;SDS011;31943;51.410;7.564;2023-08-20T08:34:33;11.25;;;10.15;;
46222;SDS011;31943;51.410;7.564;2023-08-20T08:37:00;10.32;;;9.13;;
46222;SDS011;31943;51.410;7.564;2023-08-20T08:39:26;11.40;;;10.30;;
46222;SDS011;31943;51.410;7.564;2023-08-20T08:41:54;11.40;;;10.30;;
46222;SDS011;31943;51.410;7.564;2023-08-20T08:44:25;12.55;;;10.35;;
46222;SDS011;31943;51.410;7.564;2023-08-20T08:46:52;10.57;;;9.57;;
46222;SDS011;31943;51.410;7.564;2023-08-20T08:49:18;9.52;;;8.43;;
46222;SDS011;31943;51.410;7.564;2023-08-20T08:51:45;9.48;;;8.52;;
46222;SDS011;31943;51.410;7.564;2023-08-20T08:54:15;9.10;;;7.40;;
46222;SDS011;31943;51.410;7.564;2023-08-20T08:56:43;7.47;;;6.72;;
46222;SDS011;31943;51.410;7.564;2023-08-20T08:59:10;8.73;;;6.95;;
46222;SDS011;31943;51.410;7.564;2023-08-20T09:01:37;5.68;;;5.18;;
46222;SDS011;31943;51.410;7.564;2023-08-20T09:04:04;6.78;;;5.55;;
46222;SDS011;31943;51.410;7.564;2023-08-20T09:06:29;6.82;;;6.05;;
46222;SDS011;31943;51.410;7.564;2023-08-20T09:09:09;6.82;;;6.13;;
46222;SDS011;31943;51.410;7.564;2023-08-20T09:11:36;6.00;;;5.00;;
46222;SDS011;31943;51.410;7.564;2023-08-20T09:14:03;5.95;;;4.95;;
46222;SDS011;31943;51.410;7.564;2023-08-20T09:16:29;6.88;;;5.60;;
46222;SDS011;31943;51.410;7.564;2023-08-20T09:18:57;6.32;;;5.00;;
46222;SDS011;31943;51.410;7.564;2023-08-20T09:21:26;6.75;;;5.30;;
46222;SDS011;31943;51.410;7.564;2023-08-20T09:23:52;5.93;;;4.68;;
46222;SDS011;31943;51.410;7.564;2023-08-20T09:26:18;7.35;;;4.55;;
46222;SDS011;31943;51.410;7.564;2023-08-20T09:28:47;7.00;;;6.30;;
46222;SDS011;31943;51.410;7.564;2023-08-20T09:31:13;6.57;;;5.25;;
46222;SDS011;31943;51.410;7.564;2023-08-20T09:33:48;5.20;;;4.57;;
46222;SDS011;31943;51.410;7.564;2023-08-20T09:36:15;4.85;;;4.45;;
46222;SDS011;31943;51.410;7.564;2023-08-20T09:38:42;6.60;;;4.13;;
46222;SDS011;31943;51.410;7.564;2023-08-20T09:41:08;4.28;;;3.88;;
46222;SDS011;31943;51.410;7.564;2023-08-20T09:43:38;3.75;;;3.03;;
46222;SDS011;31943;51.410;7.564;2023-08-20T09:46:07;3.33;;;2.88;;
46222;SDS011;31943;51.410;7.564;2023-08-20T09:48:38;3.22;;;2.92;;
46222;SDS011;31943;51.410;7.564;2023-08-20T09:51:10;3.27;;;2.73;;
46222;SDS011;31943;51.410;7.564;2023-08-20T09:53:37;4.57;;;3.45;;
46222;SDS011;31943;51.410;7.564;2023-08-20T09:56:14;4.45;;;3.03;;
46222;SDS011;31943;51.410;7.564;2023-08-20T09:58:43;5.93;;;3.00;;
46222;SDS011;31943;51.410;7.564;2023-08-20T10:01:11;4.07;;;3.08;;
46222;SDS011;31943;51.410;7.564;2023-08-20T10:03:37;4.22;;;2.95;;
46222;SDS011;31943;51.410;7.564;2023-08-20T10:06:03;3.05;;;2.70;;
46222;SDS011;31943;51.410;7.564;2023-08-20T10:08:30;5.20;;;2.83;;
46222;SDS011;31943;51.410;7.564;2023-08-20T10:10:56;4.72;;;3.08;;
46222;SDS011;31943;51.410;7.564;2023-08-20T10:13:22;4.78;;;3.50;;
46222;SDS011;31943;51.410;7.564;2023-08-20T10:15:49;3.90;;;3.17;;
46222;SDS011;31943;51.410;7.564;2023-08-20T10:18:19;3.90;;;3.03;;
46222;SDS011;31943;51.410;7.564;2023-08-20T10:20:46;5.28;;;3.50;;
46222;SDS011;31943;51.410;7.564;2023-08-20T10:23:13;3.95;;;3.53;;
46222;SDS011;31943;51.410;7.564;2023-08-20T10:25:41;5.10;;;3.70;;
46222;SDS011;31943;51.410;7.564;2023-08-20T10:28:11;4.22;;;3.13;;
46222;SDS011;31943;51.410;7.564;2023-08-20T10:33:04;3.88;;;3.58;;
46222;SDS011;31943;51.410;7.564;2023-08-20T10:38:14;4.07;;;3.55;;
46222;SDS011;31943;51.410;7.564;2023-08-20T10:40:47;4.88;;;3.33;;
46222;SDS011;31943;51.410;7.564;2023-08-20T10:43:23;4.25;;;2.92;;
46222;SDS011;31943;51.410;7.564;2023-08-20T10:46:01;3.33;;;3.03;;
46222;SDS011;31943;51.410;7.564;2023-08-20T10:48:29;4.80;;;3.38;;
46222;SDS011;31943;51.410;7.564;2023-08-20T10:50:58;4.20;;;3.13;;
46222;SDS011;31943;51.410;7.564;2023-08-20T10:53:24;4.30;;;3.90;;
46222;SDS011;31943;51.410;7.564;2023-08-20T10:55:51;4.93;;;4.00;;
46222;SDS011;31943;51.410;7.564;2023-08-20T10:58:17;4.88;;;4.30;;
46222;SDS011;31943;51.410;7.564;2023-08-20T11:00:44;4.80;;;4.30;;
46222;SDS011;31943;51.410;7.564;2023-08-20T11:03:09;4.53;;;3.80;;
46222;SDS011;31943;51.410;7.564;2023-08-20T11:05:35;7.05;;;4.03;;
46222;SDS011;31943;51.410;7.564;2023-08-20T11:08:03;7.03;;;4.50;;
46222;SDS011;31943;51.410;7.564;2023-08-20T11:10:30;4.60;;;4.18;;
46222;SDS011;31943;51.410;7.564;2023-08-20T11:12:57;4.47;;;4.07;;
46222;SDS011;31943;51.410;7.564;2023-08-20T11:15:24;4.63;;;4.10;;
46222;SDS011;31943;51.410;7.564;2023-08-20T11:17:50;4.18;;;3.80;;
46222;SDS011;31943;51.410;7.564;2023-08-20T11:20:16;3.97;;;3.67;;
46222;SDS011;31943;51.410;7.564;2023-08-20T11:22:43;4.85;;;3.80;;
46222;SDS011;31943;51.410;7.564;2023-08-20T11:25:14;4.47;;;4.07;;
46222;SDS011;31943;51.410;7.564;2023-08-20T11:27:41;4.47;;;3.80;;
46222;SDS011;31943;51.410;7.564;2023-08-20T11:30:07;4.05;;;3.75;;
46222;SDS011;31943;51.410;7.564;2023-08-20T11:32:34;4.85;;;3.60;;
46222;SDS011;31943;51.410;7.564;2023-08-20T11:35:01;5.82;;;3.67;;
46222;SDS011;31943;51.410;7.564;2023-08-20T11:37:28;4.70;;;3.70;;
46222;SDS011;31943;51.410;7.564;2023-08-20T11:39:54;4.82;;;4.18;;
46222;SDS011;31943;51.410;7.564;2023-08-20T11:42:21;6.07;;;4.88;;
46222;SDS011;31943;51.410;7.564;2023-08-20T11:44:47;6.70;;;4.47;;
46222;SDS011;31943;51.410;7.564;2023-08-20T11:47:14;5.18;;;4.00;;
46222;SDS011;31943;51.410;7.564;2023-08-20T11:49:40;4.80;;;3.75;;
46222;SDS011;31943;51.410;7.564;2023-08-20T11:52:07;4.05;;;3.65;;
46222;SDS011;31943;51.410;7.564;2023-08-20T11:54:33;4.63;;;3.70;;
46222;SDS011;31943;51.410;7.564;2023-08-20T11:57:01;4.40;;;3.70;;
46222;SDS011;31943;51.410;7.564;2023-08-20T11:59:30;3.72;;;3.35;;
46222;SDS011;31943;51.410;7.564;2023-08-20T12:01:57;3.65;;;3.10;;
46222;SDS011;31943;51.410;7.564;2023-08-20T12:04:27;4.18;;;3.05;;
46222;SDS011;31943;51.410;7.564;2023-08-20T12:07:03;4.60;;;3.80;;
46222;SDS011;31943;51.410;7.564;2023-08-20T12:09:30;3.50;;;2.80;;
46222;SDS011;31943;51.410;7.564;2023-08-20T12:11:56;3.38;;;3.00;;
46222;SDS011;31943;51.410;7.564;2023-08-20T12:14:22;6.00;;;3.10;;
46222;SDS011;31943;51.410;7.564;2023-08-20T12:16:50;4.32;;;3.88;;
46222;SDS011;31943;51.410;7.564;2023-08-20T12:19:15;4.63;;;4.22;;
46222;SDS011;31943;51.410;7.564;2023-08-20T12:21:41;5.25;;;4.57;;
46222;SDS011;31943;51.410;7.564;2023-08-20T12:24:09;4.78;;;4.30;;
46222;SDS011;31943;51.410;7.564;2023-08-20T12:26:34;5.28;;;4.15;;
46222;SDS011;31943;51.410;7.564;2023-08-20T12:29:02;5.20;;;4.60;;
46222;SDS011;31943;51.410;7.564;2023-08-20T12:31:28;4.63;;;4.22;;
46222;SDS011;31943;51.410;7.564;2023-08-20T12:33:56;5.10;;;4.32;;
46222;SDS011;31943;51.410;7.564;2023-08-20T12:36:22;5.00;;;4.60;;
46222;SDS011;31943;51.410;7.564;2023-08-20T12:38:48;4.88;;;4.45;;
46222;SDS011;31943;51.410;7.564;2023-08-20T12:41:15;4.47;;;4.00;;
46222;SDS011;31943;51.410;7.564;2023-08-20T12:43:40;4.22;;;3.55;;
46222;SDS011;31943;51.410;7.564;2023-08-20T12:46:06;5.45;;;3.88;;
46222;SDS011;31943;51.410;7.564;2023-08-20T12:48:32;5.97;;;3.88;;
46222;SDS011;31943;51.410;7.564;2023-08-20T12:50:59;4.38;;;3.92;;
46222;SDS011;31943;51.410;7.564;2023-08-20T12:53:25;4.63;;;3.72;;
46222;SDS011;31943;51.410;7.564;2023-08-20T12:55:51;5.35;;;4.57;;
46222;SDS011;31943;51.410;7.564;2023-08-20T12:58:16;6.22;;;4.80;;
46222;SDS011;31943;51.410;7.564;2023-08-20T13:00:43;7.03;;;5.13;;
46222;SDS011;31943;51.410;7.564;2023-08-20T13:03:09;6.53;;;4.60;;
46222;SDS011;31943;51.410;7.564;2023-08-20T13:05:35;6.30;;;4.75;;
46222;SDS011;31943;51.410;7.564;2023-08-20T13:08:04;5.93;;;4.70;;
46222;SDS011;31943;51.410;7.564;2023-08-20T13:10:30;4.80;;;4.40;;
46222;SDS011;31943;51.410;7.564;2023-08-20T13:13:01;6.05;;;4.78;;
46222;SDS011;31943;51.410;7.564;2023-08-20T13:17:53;4.93;;;4.43;;
46222;SDS011;31943;51.410;7.564;2023-08-20T13:20:19;4.78;;;4.32;;
46222;SDS011;31943;51.410;7.564;2023-08-20T13:22:45;6.68;;;5.72;;
46222;SDS011;31943;51.410;7.564;2023-08-20T13:25:12;7.30;;;6.60;;
46222;SDS011;31943;51.410;7.564;2023-08-20T13:27:38;7.55;;;6.85;;
46222;SDS011;31943;51.410;7.564;2023-08-20T13:30:04;7.55;;;6.80;;
46222;SDS011;31943;51.410;7.564;2023-08-20T13:32:30;7.50;;;6.80;;
46222;SDS011;31943;51.410;7.564;2023-08-20T13:34:56;8.02;;;6.70;;
46222;SDS011;31943;51.410;7.564;2023-08-20T13:37:22;6.82;;;6.10;;
46222;SDS011;31943;51.410;7.564;2023-08-20T13:39:47;6.88;;;6.22;;
46222;SDS011;31943;51.410;7.564;2023-08-20T13:42:14;8.43;;;7.10;;
46222;SDS011;31943;51.410;7.564;2023-08-20T13:44:40;7.68;;;6.97;;
46222;SDS011;31943;51.410;7.564;2023-08-20T13:47:06;8.35;;;7.43;;
46222;SDS011;31943;51.410;7.564;2023-08-20T13:49:31;8.65;;;7.78;;
46222;SDS011;31943;51.410;7.564;2023-08-20T13:51:57;8.60;;;7.60;;
46222;SDS011;31943;51.410;7.564;2023-08-20T13:54:23;9.77;;;8.88;;
46222;SDS011;31943;51.410;7.564;2023-08-20T13:56:50;10.35;;;9.30;;
46222;SDS011;31943;51.410;7.564;2023-08-20T13:59:18;9.40;;;8.50;;
46222;SDS011;31943;51.410;7.564;2023-08-20T14:01:43;9.02;;;8.10;;
46222;SDS011;31943;51.410;7.564;2023-08-20T14:04:09;9.02;;;8.23;;
46222;SDS011;31943;51.410;7.564;2023-08-20T14:06:35;9.82;;;8.93;;
46222;SDS011;31943;51.410;7.564;2023-08-20T14:09:00;9.30;;;8.40;;
46222;SDS011;31943;51.410;7.564;2023-08-20T14:11:26;9.57;;;8.63;;
46222;SDS011;31943;51.410;7.564;2023-08-20T14:13:51;11.52;;;8.68;;
46222;SDS011;31943;51.410;7.564;2023-08-20T14:16:18;10.27;;;9.27;;
46222;SDS011;31943;51.410;7.564;2023-08-20T14:18:45;11.00;;;9.90;;
46222;SDS011;31943;51.410;7.564;2023-08-20T14:21:11;10.15;;;9.15;;
46222;SDS011;31943;51.410;7.564;2023-08-20T14:23:36;11.43;;;9.45;;
46222;SDS011;31943;51.410;7.564;2023-08-20T14:26:04;10.30;;;9.30;;
46222;SDS011;31943;51.410;7.564;2023-08-20T14:28:30;10.65;;;9.65;;
46222;SDS011;31943;51.410;7.564;2023-08-20T14:31:01;10.88;;;9.77;;
46222;SDS011;31943;51.410;7.564;2023-08-20T14:33:29;9.93;;;9.13;;
46222;SDS011;31943;51.410;7.564;2023-08-20T14:35:54;11.13;;;9.75;;
46222;SDS011;31943;51.410;7.564;2023-08-20T14:38:20;10.23;;;9.32;;
46222;SDS011;31943;51.410;7.564;2023-08-20T14:40:46;12.23;;;11.05;;
46222;SDS011;31943;51.410;7.564;2023-08-20T14:43:11;11.05;;;10.15;;
46222;SDS011;31943;51.410;7.564;2023-08-20T14:45:37;11.38;;;10.27;;
46222;SDS011;31943;51.410;7.564;2023-08-20T14:48:03;11.52;;;10.32;;
46222;SDS011;31943;51.410;7.564;2023-08-20T14:50:30;12.07;;;10.88;;